Time;durP1;ratioP1;P1;durP2;ratioP2;P2;SDS_P1;SDS_P2;PMS_P1;PMS_P2;Temp;Humidity;BMP_temperature;BMP_pressure;BME280_temperature;BME280_humidity;BME280_pressure;Samples;Min_cycle;Max_cycle;Signal;HPM_P1;HPM_P2
2021/03/27 00:00:15;;;;;;;4.5;1.8;;;;;;;6.11;68.17773;939.3326;;;;
2021/03/27 00:02:42;;;;;;;3.3;2.3;;;;;;;6.1;68.55957;939.3655;;;;
2021/03/27 00:05:07;;;;;;;3.4;1.8;;;;;;;6.1;68.32227;939.3253;;;;
2021/03/27 00:07:32;;;;;;;4.7;1.2;;;;;;;6.03;68.39063;939.3192;;;;
2021/03/27 00:09:57;;;;;;;2.6;1.7;;;;;;;5.87;68.93066;939.285;;;;
2021/03/27 00:12:25;;;;;;;3;1.7;;;;;;;5.86;68.99512;939.2886;;;;
2021/03/27 00:14:53;;;;;;;1.7;1.5;;;;;;;5.97;68.68652;939.2344;;;;
2021/03/27 00:17:18;;;;;;;3.9;1.6;;;;;;;5.9;69.05957;939.1937;;;;
2021/03/27 00:19:50;;;;;;;5.2;1.4;;;;;;;5.74;69.38477;939.1379;;;;
2021/03/27 00:22:14;;;;;;;2.7;1.7;;;;;;;5.64;70.0332;939.1747;;;;
2021/03/27 00:24:39;;;;;;;2.7;1.3;;;;;;;5.49;70.65039;939.1478;;;;
2021/03/27 00:27:04;;;;;;;2.3;1.8;;;;;;;5.52;70.65527;939.0886;;;;
2021/03/27 00:29:29;;;;;;;2.1;1.3;;;;;;;5.46;70.96387;939.0925;;;;
2021/03/27 00:31:54;;;;;;;2.5;1.6;;;;;;;5.38;71.43359;939.0842;;;;
2021/03/27 00:34:20;;;;;;;2;1.4;;;;;;;5.27;71.66406;939.0399;;;;
2021/03/27 00:36:45;;;;;;;2.3;1.5;;;;;;;5.31;71.60254;939.0906;;;;
2021/03/27 00:39:10;;;;;;;2.6;1.5;;;;;;;5.38;71.45801;939.0779;;;;
2021/03/27 00:41:38;;;;;;;1.8;1.2;;;;;;;5.18;71.78516;939.0709;;;;
2021/03/27 00:44:04;;;;;;;3.7;1.5;;;;;;;5.08;72.19531;939.0242;;;;
2021/03/27 00:46:29;;;;;;;2.7;1.4;;;;;;;5.01;72.50098;939.0885;;;;
2021/03/27 00:48:54;;;;;;;2.1;1.4;;;;;;;5.09;72.14063;939.0341;;;;
2021/03/27 00:51:19;;;;;;;3.7;1.8;;;;;;;5.19;71.66309;939.0917;;;;
2021/03/27 00:53:44;;;;;;;2.3;1.5;;;;;;;5.4;71.05371;939.14;;;;
2021/03/27 00:56:10;;;;;;;8.7;1;;;;;;;5.44;70.63184;939.0728;;;;
2021/03/27 00:58:35;;;;;;;2;1.2;;;;;;;5.5;70.4375;939.0359;;;;
2021/03/27 01:01:00;;;;;;;2;1.4;;;;;;;5.61;70.08496;939.0023;;;;
2021/03/27 01:03:26;;;;;;;1.3;1.1;;;;;;;5.72;69.94434;938.9619;;;;
2021/03/27 01:05:51;;;;;;;0.9;0.7;;;;;;;5.82;69.64453;938.8797;;;;
2021/03/27 01:08:16;;;;;;;8.8;1.9;;;;;;;5.84;69.21875;938.9641;;;;
2021/03/27 01:10:46;;;;;;;3.4;1.2;;;;;;;5.89;69.07031;938.9941;;;;
2021/03/27 01:13:10;;;;;;;1.5;0.9;;;;;;;5.85;68.66602;938.8987;;;;
2021/03/27 01:15:38;;;;;;;1.4;1.1;;;;;;;5.8;68.78223;938.867;;;;
2021/03/27 01:18:07;;;;;;;1.2;1;;;;;;;5.79;69.05273;938.8859;;;;
2021/03/27 01:20:37;;;;;;;3.5;1.6;;;;;;;5.62;69.34082;938.8951;;;;
2021/03/27 01:23:02;;;;;;;1.8;1.4;;;;;;;5.4;69.98145;938.8108;;;;
2021/03/27 01:25:32;;;;;;;2;1.3;;;;;;;5.52;69.82129;938.8036;;;;
2021/03/27 01:27:58;;;;;;;1.1;1;;;;;;;5.59;69.59668;938.8056;;;;
2021/03/27 01:30:23;;;;;;;4.8;1.1;;;;;;;5.66;69.06641;938.8127;;;;
2021/03/27 01:32:48;;;;;;;1.9;1.3;;;;;;;5.73;68.82813;938.7529;;;;
2021/03/27 01:35:16;;;;;;;1.7;1.1;;;;;;;5.68;69;938.7578;;;;
2021/03/27 01:37:41;;;;;;;2.7;1.1;;;;;;;5.6;69.20313;938.7111;;;;
2021/03/27 01:40:08;;;;;;;2.2;0.9;;;;;;;5.65;69.31152;938.6244;;;;
2021/03/27 01:42:33;;;;;;;3.8;1.1;;;;;;;5.54;69.67773;938.5655;;;;
2021/03/27 01:44:59;;;;;;;1.2;0.9;;;;;;;5.36;70.34766;938.4384;;;;
2021/03/27 01:47:29;;;;;;;1.5;1.1;;;;;;;5.25;70.88086;938.4416;;;;
2021/03/27 01:49:54;;;;;;;1;0.8;;;;;;;5.25;70.99414;938.4226;;;;
2021/03/27 01:52:19;;;;;;;2.2;1.1;;;;;;;5.04;71.51172;938.4171;;;;
2021/03/27 01:54:44;;;;;;;3;1.3;;;;;;;4.9;72.34668;938.3209;;;;
2021/03/27 01:57:09;;;;;;;4.5;1.4;;;;;;;5.08;71.95898;938.3447;;;;
2021/03/27 01:59:38;;;;;;;1.9;1.3;;;;;;;5.24;71.78223;938.2692;;;;
2021/03/27 02:02:03;;;;;;;2.5;1.6;;;;;;;5.41;70.88574;938.3683;;;;
2021/03/27 02:04:30;;;;;;;1.6;1.3;;;;;;;5.23;70.94727;938.1861;;;;
2021/03/27 02:06:55;;;;;;;2.4;1.2;;;;;;;5.32;70.88184;938.2803;;;;
2021/03/27 02:09:20;;;;;;;1.3;1.2;;;;;;;5.38;70.71191;938.4082;;;;
2021/03/27 02:11:45;;;;;;;2;1;;;;;;;5.44;70.28223;938.4253;;;;
2021/03/27 02:14:11;;;;;;;4.1;1.6;;;;;;;5.45;70.31934;938.4131;;;;
2021/03/27 02:16:36;;;;;;;4;1.4;;;;;;;5.43;70.21191;938.3989;;;;
2021/03/27 02:19:05;;;;;;;2.2;1.5;;;;;;;5.45;70.0791;938.439;;;;
2021/03/27 02:21:30;;;;;;;2.9;1;;;;;;;5.53;70.21777;938.4067;;;;
2021/03/27 02:23:59;;;;;;;2.1;1.4;;;;;;;5.62;69.47656;938.4158;;;;
2021/03/27 02:26:29;;;;;;;2.6;1.4;;;;;;;5.61;69.24902;938.3807;;;;
2021/03/27 02:28:58;;;;;;;2.1;0.9;;;;;;;5.46;69.55176;938.4133;;;;
2021/03/27 02:31:28;;;;;;;1.5;1.2;;;;;;;5.57;69.05176;938.4678;;;;
2021/03/27 02:33:53;;;;;;;1.5;0.8;;;;;;;5.58;69.30176;938.483;;;;
2021/03/27 02:36:20;;;;;;;1.9;1;;;;;;;5.59;68.94141;938.4881;;;;
2021/03/27 02:38:45;;;;;;;1.6;1.4;;;;;;;5.57;69.12891;938.4045;;;;
2021/03/27 02:41:10;;;;;;;2.5;1;;;;;;;5.5;69.78516;938.4241;;;;
2021/03/27 02:43:37;;;;;;;2.1;1.4;;;;;;;5.52;69.79883;938.4529;;;;
2021/03/27 02:46:05;;;;;;;1.4;0.8;;;;;;;5.5;69.63867;938.4705;;;;
2021/03/27 02:48:30;;;;;;;1.9;1.1;;;;;;;5.55;69.35254;938.3961;;;;
2021/03/27 02:50:57;;;;;;;2.4;1.7;;;;;;;5.49;69.77051;938.4119;;;;
2021/03/27 02:53:22;;;;;;;2.5;1.5;;;;;;;5.44;70.05664;938.3339;;;;
2021/03/27 02:55:47;;;;;;;2.8;1.2;;;;;;;5.47;70.0625;938.2779;;;;
2021/03/27 02:58:13;;;;;;;1.5;1.3;;;;;;;5.55;69.97266;938.3622;;;;
2021/03/27 03:00:39;;;;;;;2.1;1.4;;;;;;;5.49;70.84277;938.4211;;;;
2021/03/27 03:03:04;;;;;;;3.1;1.7;;;;;;;5.4;70.6582;938.4128;;;;
2021/03/27 03:05:33;;;;;;;1.3;1.1;;;;;;;5.34;70.69434;938.4854;;;;
2021/03/27 03:08:00;;;;;;;2;1.3;;;;;;;5.27;71.03418;938.4874;;;;
2021/03/27 03:10:37;;;;;;;2.3;1.3;;;;;;;5.31;71.15234;938.5833;;;;
2021/03/27 03:13:01;;;;;;;3;1.2;;;;;;;5.42;70.40234;938.5558;;;;
2021/03/27 03:15:32;;;;;;;2.1;1.5;;;;;;;5.43;70.32617;938.5876;;;;
2021/03/27 03:18:01;;;;;;;2;1.2;;;;;;;5.37;70.64258;938.5399;;;;
2021/03/27 03:20:34;;;;;;;12.8;1.4;;;;;;;5.31;71.35547;938.5454;;;;
2021/03/27 03:23:04;;;;;;;2.5;1.8;;;;;;;5.2;71.83203;938.5156;;;;
2021/03/27 03:25:36;;;;;;;3.8;1.6;;;;;;;5.18;72.1123;938.5838;;;;
2021/03/27 03:28:07;;;;;;;2.3;1.7;;;;;;;5.24;72.14453;938.5598;;;;
2021/03/27 03:30:34;;;;;;;3.1;1.8;;;;;;;5.29;71.75684;938.5557;;;;
2021/03/27 03:33:00;;;;;;;3.2;1.5;;;;;;;5.28;71.77832;938.6217;;;;
2021/03/27 03:35:25;;;;;;;2.4;1.2;;;;;;;5.27;71.73145;938.6223;;;;
2021/03/27 03:37:50;;;;;;;2.1;1.3;;;;;;;5.17;72.07715;938.6333;;;;
2021/03/27 03:40:16;;;;;;;2.3;1.5;;;;;;;5.11;72.34863;938.6946;;;;
2021/03/27 03:42:41;;;;;;;1;0.9;;;;;;;5.06;72.60938;938.7301;;;;
2021/03/27 03:45:06;;;;;;;4.4;2.1;;;;;;;5.06;72.66504;938.7419;;;;
2021/03/27 03:47:34;;;;;;;1.7;1.3;;;;;;;5.03;72.69531;938.6236;;;;
2021/03/27 03:49:58;;;;;;;1.9;1.4;;;;;;;5.13;72.35156;938.7172;;;;
2021/03/27 03:52:24;;;;;;;2.7;1.5;;;;;;;5.14;72.43066;938.6922;;;;
2021/03/27 03:54:49;;;;;;;1.3;1.1;;;;;;;5.21;72.34082;938.637;;;;
2021/03/27 03:57:17;;;;;;;4.3;1.8;;;;;;;5.2;72.125;938.6506;;;;
2021/03/27 03:59:42;;;;;;;2.6;1.8;;;;;;;5.13;72.56445;938.6958;;;;
2021/03/27 04:02:36;;;;;;;2.2;1.4;;;;;;;5.19;72.1582;938.6805;;;;
2021/03/27 04:05:01;;;;;;;3.1;2.1;;;;;;;5.22;72.09473;938.6933;;;;
2021/03/27 04:07:27;;;;;;;3.7;1.8;;;;;;;5.27;72.125;938.7927;;;;
2021/03/27 04:09:52;;;;;;;2.7;1.6;;;;;;;5.38;71.85156;938.8583;;;;
2021/03/27 04:12:17;;;;;;;8.8;2.5;;;;;;;5.44;71.60254;938.9166;;;;
2021/03/27 04:14:42;;;;;;;8.1;1.8;;;;;;;5.5;71.43066;938.908;;;;
2021/03/27 04:17:18;;;;;;;2.2;1.6;;;;;;;5.36;71.71289;938.9155;;;;
2021/03/27 04:19:46;;;;;;;2.1;1.6;;;;;;;5.13;72.52051;938.8734;;;;
2021/03/27 04:22:11;;;;;;;3.3;1.8;;;;;;;5.07;72.9707;938.9055;;;;
2021/03/27 04:24:36;;;;;;;7.9;1.9;;;;;;;5.16;73.08887;938.8876;;;;
2021/03/27 04:27:01;;;;;;;3.8;1.7;;;;;;;5.29;72.79492;938.8801;;;;
2021/03/27 04:29:29;;;;;;;1.8;1.4;;;;;;;5.47;72.01367;938.8653;;;;
2021/03/27 04:31:55;;;;;;;3.4;1.4;;;;;;;5.57;71.52246;939.0025;;;;
2021/03/27 04:34:22;;;;;;;1.9;1.4;;;;;;;5.53;71.51563;939.0906;;;;
2021/03/27 04:36:47;;;;;;;3.1;1.9;;;;;;;5.33;72.65625;939.1512;;;;
2021/03/27 04:39:12;;;;;;;3.4;1.8;;;;;;;5.36;72.96484;939.1617;;;;
2021/03/27 04:41:37;;;;;;;1.6;1.3;;;;;;;5.5;72.42383;939.231;;;;
2021/03/27 04:44:03;;;;;;;3.4;2.6;;;;;;;5.57;72.37988;939.2354;;;;
2021/03/27 04:46:28;;;;;;;12.9;7;;;;;;;5.61;72.35547;939.267;;;;
2021/03/27 04:48:53;;;;;;;2.5;2;;;;;;;5.7;72.17676;939.272;;;;
2021/03/27 04:51:19;;;;;;;1.5;1.2;;;;;;;5.42;73.08887;939.2665;;;;
2021/03/27 04:53:46;;;;;;;2.9;1.4;;;;;;;5.55;72.74902;939.3027;;;;
2021/03/27 04:56:11;;;;;;;2.4;1.6;;;;;;;5.68;72.21875;939.3432;;;;
2021/03/27 04:58:36;;;;;;;2.2;1.6;;;;;;;5.7;72.2207;939.4156;;;;
2021/03/27 05:01:01;;;;;;;2.6;1.5;;;;;;;5.67;72.26074;939.4465;;;;
2021/03/27 05:03:26;;;;;;;1.8;1.4;;;;;;;5.58;72.40527;939.5092;;;;
2021/03/27 05:05:52;;;;;;;2.2;1.6;;;;;;;5.59;72.59863;939.5591;;;;
2021/03/27 05:08:17;;;;;;;2.6;1.9;;;;;;;5.56;73.48633;939.604;;;;
2021/03/27 05:10:42;;;;;;;4.2;2.2;;;;;;;5.62;72.75;939.6163;;;;
2021/03/27 05:13:07;;;;;;;2.8;1.8;;;;;;;5.63;72.48047;939.6362;;;;
2021/03/27 05:15:42;;;;;;;2.1;1.8;;;;;;;5.57;72.79785;939.7039;;;;
2021/03/27 05:18:12;;;;;;;2.8;1.6;;;;;;;5.6;72.81348;939.8461;;;;
2021/03/27 05:20:45;;;;;;;4.6;2.2;;;;;;;5.67;72.58887;939.9392;;;;
2021/03/27 05:23:10;;;;;;;3;1.5;;;;;;;4.97;75.70703;939.8823;;;;
2021/03/27 05:25:42;;;;;;;1.6;1.5;;;;;;;4.78;76.58398;939.9434;;;;
2021/03/27 05:28:07;;;;;;;3.6;2.4;;;;;;;4.97;76.03223;940.0061;;;;
2021/03/27 05:30:35;;;;;;;3.4;1.5;;;;;;;5.07;75.57422;940.0797;;;;
2021/03/27 05:33:03;;;;;;;2.6;1.7;;;;;;;5.12;75.23438;940.075;;;;
2021/03/27 05:35:29;;;;;;;3;1.4;;;;;;;5.12;75.22461;940.2039;;;;
2021/03/27 05:37:54;;;;;;;3.6;2.3;;;;;;;5.15;75.16016;940.2717;;;;
2021/03/27 05:40:19;;;;;;;1.8;1.3;;;;;;;5.11;75.1543;940.2216;;;;
2021/03/27 05:42:44;;;;;;;3.1;1.8;;;;;;;4.99;75.80859;940.2244;;;;
2021/03/27 05:45:11;;;;;;;3.2;1.9;;;;;;;5.18;75.37109;940.2572;;;;
2021/03/27 05:49:03;;;;;;;1.7;1.3;;;;;;;5.35;74.14844;940.2841;;;;
2021/03/27 05:51:28;;;;;;;3.8;2;;;;;;;5.54;73.32324;940.4152;;;;
2021/03/27 05:53:54;;;;;;;3.6;2.4;;;;;;;5.71;73.10254;940.472;;;;
2021/03/27 05:56:20;;;;;;;4.7;2.4;;;;;;;5.86;72.10156;940.5308;;;;
2021/03/27 05:58:47;;;;;;;6.2;3.9;;;;;;;6;71.62891;940.628;;;;
2021/03/27 06:01:13;;;;;;;4.2;2.6;;;;;;;6.22;71.1123;940.658;;;;
2021/03/27 06:03:38;;;;;;;6.2;1.9;;;;;;;6.41;69.88672;940.7191;;;;
2021/03/27 06:06:03;;;;;;;3.7;2.6;;;;;;;6.58;71.21777;940.7239;;;;
2021/03/27 06:08:28;;;;;;;7.6;3.2;;;;;;;6.86;69.90527;940.8353;;;;
2021/03/27 06:10:53;;;;;;;4.5;2;;;;;;;7.24;68.67383;940.9226;;;;
2021/03/27 06:13:21;;;;;;;2.6;2.1;;;;;;;7.38;67.9834;940.9611;;;;
2021/03/27 06:15:53;;;;;;;4.3;2.2;;;;;;;7.89;67.39355;940.9246;;;;
2021/03/27 06:18:19;;;;;;;2.4;1.9;;;;;;;8.37;64.5166;940.9348;;;;
2021/03/27 06:20:53;;;;;;;3.9;2.1;;;;;;;8.38;64.14258;941.0525;;;;
2021/03/27 06:23:20;;;;;;;5.3;2.6;;;;;;;8.45;64.02734;941.1177;;;;
2021/03/27 06:25:50;;;;;;;3;1.8;;;;;;;8.18;65.49707;941.1234;;;;
2021/03/27 06:28:17;;;;;;;5.1;2.5;;;;;;;8.44;63.9248;941.1295;;;;
2021/03/27 06:30:42;;;;;;;3.5;2.3;;;;;;;8.37;62.69727;941.134;;;;
2021/03/27 06:33:08;;;;;;;3;2.1;;;;;;;8.51;62.79785;941.2492;;;;
2021/03/27 06:35:37;;;;;;;4.5;2.2;;;;;;;8.94;61.08594;941.2477;;;;
2021/03/27 06:38:02;;;;;;;3.7;1.8;;;;;;;9.35;59.82324;941.2523;;;;
2021/03/27 06:40:27;;;;;;;2;1.5;;;;;;;9.88;57.68555;941.2919;;;;
2021/03/27 06:42:53;;;;;;;3.6;1.9;;;;;;;10.47;55.36719;941.4671;;;;
2021/03/27 06:45:18;;;;;;;6.8;2.2;;;;;;;10.69;54.41211;941.4506;;;;
2021/03/27 06:47:43;;;;;;;6.5;1.6;;;;;;;10.75;53.19922;941.5295;;;;
2021/03/27 06:50:10;;;;;;;2;1.7;;;;;;;10.86;53.8623;941.4962;;;;
2021/03/27 06:52:35;;;;;;;2.8;1.6;;;;;;;10.74;52.38574;941.4393;;;;
2021/03/27 06:55:00;;;;;;;2.3;1.5;;;;;;;10.8;53.37598;941.4131;;;;
2021/03/27 06:57:26;;;;;;;2.4;1.8;;;;;;;11.1;52.64648;941.5347;;;;
2021/03/27 06:59:53;;;;;;;2;1.6;;;;;;;11.58;51.82422;941.6875;;;;
2021/03/27 07:02:20;;;;;;;2.4;1.6;;;;;;;11.91;49.29688;941.7549;;;;
2021/03/27 07:04:48;;;;;;;2.9;1.7;;;;;;;12.45;48.625;941.6815;;;;
2021/03/27 07:07:13;;;;;;;1.4;1.1;;;;;;;12.75;47.92383;941.6183;;;;
2021/03/27 07:10:42;;;;;;;6.3;1.6;;;;;;;12.99;47.39941;941.7;;;;
2021/03/27 07:13:11;;;;;;;1.9;1.4;;;;;;;12.16;48.79883;941.7336;;;;
2021/03/27 07:15:43;;;;;;;2.1;1.4;;;;;;;11.76;50.72363;941.7257;;;;
2021/03/27 07:18:14;;;;;;;1.3;1.1;;;;;;;11.19;51.42188;941.7717;;;;
2021/03/27 07:20:37;;;;;;;3.2;1.4;;;;;;;10.9;52.91992;941.8466;;;;
2021/03/27 07:23:02;;;;;;;1.8;1.4;;;;;;;10.56;53.33496;941.782;;;;
2021/03/27 07:25:27;;;;;;;1.2;1;;;;;;;10.31;54.59375;941.907;;;;
2021/03/27 07:27:52;;;;;;;6.3;1.1;;;;;;;10.26;55.40918;941.9435;;;;
2021/03/27 07:30:17;;;;;;;1.5;1.2;;;;;;;10.32;55.67969;941.9963;;;;
2021/03/27 07:32:42;;;;;;;2.6;1;;;;;;;10.37;56.26758;941.997;;;;
2021/03/27 07:35:09;;;;;;;2.4;1.3;;;;;;;10.05;55.38086;942.0173;;;;
2021/03/27 07:37:39;;;;;;;2.9;1.7;;;;;;;9.71;56.27148;942.0441;;;;
2021/03/27 07:40:04;;;;;;;4.4;1.8;;;;;;;9.8;56.91113;942.0545;;;;
2021/03/27 07:42:30;;;;;;;3.8;2.2;;;;;;;10.02;58.02441;942.1314;;;;
2021/03/27 07:44:57;;;;;;;4.2;2.3;;;;;;;10.1;56.90527;942.2012;;;;
2021/03/27 07:47:22;;;;;;;4;1.3;;;;;;;9.83;58.60156;942.2056;;;;
2021/03/27 07:49:56;;;;;;;2.2;1.5;;;;;;;9.69;59.63184;942.2894;;;;
2021/03/27 07:52:21;;;;;;;3.4;2.3;;;;;;;9.77;59.10645;942.3918;;;;
2021/03/27 07:54:48;;;;;;;1.8;1.5;;;;;;;9.84;60.46289;942.4771;;;;
2021/03/27 07:57:14;;;;;;;3.5;1.4;;;;;;;10.04;58.8584;942.4333;;;;
2021/03/27 07:59:40;;;;;;;1.3;1;;;;;;;10.2;59.53027;942.5467;;;;
2021/03/27 08:02:07;;;;;;;3.7;1.3;;;;;;;10.1;59.69922;942.5704;;;;
2021/03/27 08:04:32;;;;;;;4.2;1.6;;;;;;;9.76;60.75879;942.6089;;;;
2021/03/27 08:06:57;;;;;;;12;1.4;;;;;;;9.76;63.28809;942.6216;;;;
2021/03/27 08:09:22;;;;;;;4.3;1.6;;;;;;;9.53;64.08496;942.6326;;;;
2021/03/27 08:11:48;;;;;;;4.2;1.6;;;;;;;9.67;64.88086;942.6094;;;;
2021/03/27 08:14:13;;;;;;;2.3;1.1;;;;;;;9.8;65.83594;942.6328;;;;
2021/03/27 08:16:39;;;;;;;1.3;1.1;;;;;;;9.86;67.56543;942.736;;;;
2021/03/27 08:19:06;;;;;;;2.2;1.7;;;;;;;10.01;70.00879;942.7447;;;;
2021/03/27 08:21:28;;;;;;;2.3;1.1;;;;;;;10.25;69.78418;942.7949;;;;
2021/03/27 08:23:53;;;;;;;5.5;0.7;;;;;;;10.52;67.86426;942.8103;;;;
2021/03/27 08:26:18;;;;;;;1.4;0.8;;;;;;;10.81;66.96191;942.8467;;;;
2021/03/27 08:28:53;;;;;;;1.3;0.8;;;;;;;11.18;65.91992;942.9177;;;;
2021/03/27 08:31:18;;;;;;;0.4;0.4;;;;;;;11.33;64.91211;942.9161;;;;
2021/03/27 08:33:44;;;;;;;0.6;0.6;;;;;;;11.47;64.20313;942.9416;;;;
2021/03/27 08:36:09;;;;;;;0.5;0.3;;;;;;;11.22;63.90234;942.9419;;;;
2021/03/27 08:38:37;;;;;;;2;0.5;;;;;;;11.11;64.67578;943.0912;;;;
2021/03/27 08:41:05;;;;;;;0.5;0.4;;;;;;;10.54;66.67969;943.0884;;;;
2021/03/27 08:43:30;;;;;;;0.3;0.3;;;;;;;10.77;65.88086;943.126;;;;
2021/03/27 08:45:56;;;;;;;0.2;0.1;;;;;;;10.97;65.93359;943.139;;;;
2021/03/27 08:48:22;;;;;;;0.5;0.4;;;;;;;10.74;66.7334;943.226;;;;
2021/03/27 08:50:47;;;;;;;0.5;0.4;;;;;;;10.59;68.12598;943.282;;;;
2021/03/27 08:53:13;;;;;;;0.1;0.1;;;;;;;10.21;68.7959;943.2164;;;;
2021/03/27 08:55:37;;;;;;;0.2;0.2;;;;;;;9.68;70.52344;943.3094;;;;
2021/03/27 08:58:03;;;;;;;0.3;0.3;;;;;;;9.72;69.67578;943.3309;;;;
2021/03/27 09:00:28;;;;;;;0.1;0.1;;;;;;;9.86;69.48242;943.2872;;;;
2021/03/27 09:02:57;;;;;;;0;0;;;;;;;9.97;67.85742;943.2377;;;;
2021/03/27 09:05:22;;;;;;;0.1;0;;;;;;;10.05;68.06348;943.2967;;;;
2021/03/27 09:07:48;;;;;;;0;0;;;;;;;9.95;67.1123;943.3375;;;;
2021/03/27 09:10:34;;;;;;;0.1;0.1;;;;;;;9.93;66.88184;943.3887;;;;
2021/03/27 09:13:00;;;;;;;0;0;;;;;;;9.79;67.47656;943.4152;;;;
2021/03/27 09:15:33;;;;;;;0.3;0.2;;;;;;;9.95;67.1123;943.5363;;;;
2021/03/27 09:18:08;;;;;;;0.1;0.1;;;;;;;9.81;66.4873;943.6019;;;;
2021/03/27 09:20:33;;;;;;;0.1;0.1;;;;;;;9.67;67.27441;943.5764;;;;
2021/03/27 09:22:58;;;;;;;0.1;0.1;;;;;;;9.44;69.92676;943.6919;;;;
2021/03/27 09:25:23;;;;;;;0.2;0.2;;;;;;;9.41;67.66699;943.7668;;;;
2021/03/27 09:27:48;;;;;;;0.6;0.1;;;;;;;9.62;69.04395;943.783;;;;
2021/03/27 09:30:16;;;;;;;0.2;0.2;;;;;;;9.49;71.1416;943.9221;;;;
2021/03/27 09:32:41;;;;;;;0.1;0.1;;;;;;;9.4;73.78125;943.9412;;;;
2021/03/27 09:35:07;;;;;;;1.2;0.6;;;;;;;9.1;74.08301;944.0856;;;;
2021/03/27 09:37:34;;;;;;;0.6;0.5;;;;;;;9.05;70.79492;944.0573;;;;
2021/03/27 09:39:59;;;;;;;1.4;0.5;;;;;;;9.23;73.70605;944.0698;;;;
2021/03/27 09:42:25;;;;;;;0.3;0.3;;;;;;;9.08;75.53516;944.0859;;;;
2021/03/27 09:44:50;;;;;;;1.9;0.5;;;;;;;9.17;76.05176;944.1881;;;;
2021/03/27 09:47:17;;;;;;;1.1;0.5;;;;;;;9.38;75.41797;944.3095;;;;
2021/03/27 09:49:41;;;;;;;1.2;0.9;;;;;;;9.43;75.5752;944.3142;;;;
2021/03/27 09:52:06;;;;;;;0.8;0.7;;;;;;;9.58;75.71289;944.3311;;;;
2021/03/27 09:54:31;;;;;;;0.3;0.3;;;;;;;9.61;75.29785;944.3448;;;;
2021/03/27 09:56:58;;;;;;;1;0.6;;;;;;;9.8;74.88477;944.3427;;;;
2021/03/27 09:59:26;;;;;;;0.8;0.7;;;;;;;9.69;74.44629;944.3387;;;;
2021/03/27 10:01:51;;;;;;;1;0.7;;;;;;;9.56;75.31152;944.3561;;;;
2021/03/27 10:04:16;;;;;;;0.4;0.4;;;;;;;9.44;76.52051;944.347;;;;
2021/03/27 10:06:43;;;;;;;0.1;0.1;;;;;;;9.09;71.12012;944.2966;;;;
2021/03/27 10:09:08;;;;;;;0;0;;;;;;;8.79;69.83105;944.2551;;;;
2021/03/27 10:11:34;;;;;;;0.2;0.1;;;;;;;8.58;69.34277;944.3208;;;;
2021/03/27 10:13:59;;;;;;;0;0;;;;;;;8.74;69.97266;944.3501;;;;
2021/03/27 10:16:24;;;;;;;0.2;0.2;;;;;;;9.07;70.11816;944.3908;;;;
2021/03/27 10:18:49;;;;;;;0.1;0;;;;;;;9.04;68.04004;944.4224;;;;
2021/03/27 10:21:14;;;;;;;0;0;;;;;;;9.24;68.12988;944.4778;;;;
2021/03/27 10:23:40;;;;;;;0.1;0.1;;;;;;;9.32;67.06152;944.491;;;;
2021/03/27 10:26:05;;;;;;;0;0;;;;;;;9.41;65.89063;944.4973;;;;
2021/03/27 10:28:32;;;;;;;0.2;0.2;;;;;;;9.54;66.02441;944.5497;;;;
2021/03/27 10:30:58;;;;;;;0.3;0.2;;;;;;;9.87;65.31152;944.541;;;;
2021/03/27 10:33:22;;;;;;;0.2;0.2;;;;;;;10.16;65.16016;944.6055;;;;
2021/03/27 10:35:47;;;;;;;0.1;0.1;;;;;;;9.96;65.17676;944.5278;;;;
2021/03/27 10:38:12;;;;;;;0.2;0.2;;;;;;;9.53;67.70898;944.4858;;;;
2021/03/27 10:40:41;;;;;;;0.3;0.3;;;;;;;10.17;64.23828;944.5882;;;;
2021/03/27 10:43:06;;;;;;;0.9;0.4;;;;;;;10.52;62.71484;944.57;;;;
2021/03/27 10:45:31;;;;;;;0.5;0.1;;;;;;;10.75;60.12012;944.5022;;;;
2021/03/27 10:47:57;;;;;;;0;0;;;;;;;10.92;58.7041;944.4825;;;;
2021/03/27 10:50:22;;;;;;;0.6;0.6;;;;;;;11.01;60.41992;944.5988;;;;
2021/03/27 10:52:47;;;;;;;0.1;0.1;;;;;;;10.98;62.25488;944.5983;;;;
2021/03/27 10:55:12;;;;;;;0.8;0.5;;;;;;;10.77;63.08203;944.6619;;;;
2021/03/27 10:57:38;;;;;;;0.4;0.4;;;;;;;10.97;64.65332;944.6738;;;;
2021/03/27 11:00:07;;;;;;;0.7;0.5;;;;;;;10.84;63.35547;944.6602;;;;
2021/03/27 11:02:35;;;;;;;0.4;0.2;;;;;;;10.86;57.89746;944.6639;;;;
2021/03/27 11:05:00;;;;;;;0.3;0.3;;;;;;;10.64;59.95605;944.7358;;;;
2021/03/27 11:07:27;;;;;;;3.4;0.4;;;;;;;11.04;58.8457;944.6347;;;;
2021/03/27 11:09:52;;;;;;;0.3;0.2;;;;;;;11.13;56.7666;944.6984;;;;
2021/03/27 11:12:18;;;;;;;0.3;0.3;;;;;;;11.08;58.64551;944.7143;;;;
2021/03/27 11:14:43;;;;;;;0.5;0.3;;;;;;;10.75;58.36133;944.6359;;;;
2021/03/27 11:17:08;;;;;;;0.1;0.1;;;;;;;10.8;57.12305;944.7008;;;;
2021/03/27 11:19:33;;;;;;;0.1;0.1;;;;;;;10.57;58.53125;944.6044;;;;
2021/03/27 11:21:58;;;;;;;0.3;0.2;;;;;;;10.84;60.86426;944.6362;;;;
2021/03/27 11:24:26;;;;;;;0;0;;;;;;;11.21;58;944.6138;;;;
2021/03/27 11:26:52;;;;;;;0.1;0;;;;;;;11.46;58.36621;944.5181;;;;
2021/03/27 11:29:28;;;;;;;0.3;0.2;;;;;;;11.96;56.81738;944.5192;;;;
2021/03/27 11:31:43;;;;;;;0.1;0;;;;;;;12.55;52.61621;944.5502;;;;
2021/03/27 11:34:08;;;;;;;0;0;;;;;;;12.73;50.5498;944.5748;;;;
2021/03/27 11:36:33;;;;;;;0;0;;;;;;;13.01;49.1123;944.5852;;;;
2021/03/27 11:38:58;;;;;;;0;0;;;;;;;13.06;48.25586;944.6061;;;;
2021/03/27 11:41:25;;;;;;;0.3;0.1;;;;;;;12.61;50.22461;944.6266;;;;
2021/03/27 11:43:49;;;;;;;0;0;;;;;;;12.89;49.91406;944.6016;;;;
2021/03/27 11:46:15;;;;;;;0;0;;;;;;;12.88;48.91406;944.5072;;;;
2021/03/27 11:48:40;;;;;;;0.1;0.1;;;;;;;13.14;48.9082;944.5549;;;;
2021/03/27 11:51:05;;;;;;;0.1;0.1;;;;;;;13.07;51.80664;944.5294;;;;
2021/03/27 11:53:30;;;;;;;0.2;0.1;;;;;;;13.17;50.60059;944.5496;;;;
2021/03/27 11:55:55;;;;;;;0.3;0.1;;;;;;;13.72;47.51367;944.5474;;;;
2021/03/27 11:58:20;;;;;;;4.5;0.4;;;;;;;13.61;47.71973;944.5599;;;;
2021/03/27 12:01:00;;;;;;;0.1;0;;;;;;;13.76;47.86328;944.5221;;;;
2021/03/27 12:03:11;;;;;;;0;0;;;;;;;13.83;47.94043;944.5005;;;;
2021/03/27 12:05:39;;;;;;;0.9;0.2;;;;;;;13.39;47.08594;944.517;;;;
2021/03/27 12:08:04;;;;;;;0;0;;;;;;;13.53;47.9873;944.5048;;;;
2021/03/27 12:10:30;;;;;;;0;0;;;;;;;13.94;46.84668;944.4875;;;;
2021/03/27 12:12:55;;;;;;;0;0;;;;;;;14.24;45.71582;944.4242;;;;
2021/03/27 12:15:28;;;;;;;0.9;0.2;;;;;;;14.19;46.0791;944.4766;;;;
2021/03/27 12:17:53;;;;;;;0;0;;;;;;;14.08;44.80176;944.5168;;;;
2021/03/27 12:20:20;;;;;;;0.1;0;;;;;;;13.87;46.36719;944.4952;;;;
2021/03/27 12:22:45;;;;;;;0.2;0.1;;;;;;;13.71;47.40918;944.4064;;;;
2021/03/27 12:25:10;;;;;;;0;0;;;;;;;13.89;46.41602;944.4672;;;;
2021/03/27 12:27:37;;;;;;;0;0;;;;;;;14.25;45.46289;944.4571;;;;
2021/03/27 12:30:03;;;;;;;0.1;0.1;;;;;;;14.03;45.35938;944.4387;;;;
2021/03/27 12:32:28;;;;;;;0;0;;;;;;;14.19;45.83691;944.4325;;;;
2021/03/27 12:34:53;;;;;;;0.1;0.1;;;;;;;13.83;46.16797;944.4116;;;;
2021/03/27 12:37:18;;;;;;;0;0;;;;;;;14.05;45.92578;944.4325;;;;
2021/03/27 12:39:43;;;;;;;0;0;;;;;;;14.17;43.63672;944.5413;;;;
2021/03/27 12:42:08;;;;;;;0.1;0.1;;;;;;;13.73;44.17871;944.5771;;;;
2021/03/27 12:44:34;;;;;;;0.1;0.1;;;;;;;13.58;47.37109;944.6068;;;;
2021/03/27 12:46:59;;;;;;;0.1;0.1;;;;;;;13.13;47.00098;944.6308;;;;
2021/03/27 12:49:24;;;;;;;0.3;0.2;;;;;;;12.96;48.7627;944.6567;;;;
2021/03/27 12:51:49;;;;;;;0.1;0.1;;;;;;;12.72;48.73535;944.6722;;;;
2021/03/27 12:54:14;;;;;;;0;0;;;;;;;12.69;48.1123;944.6616;;;;
2021/03/27 12:56:41;;;;;;;0.1;0.1;;;;;;;12.76;48.22363;944.647;;;;
2021/03/27 12:59:06;;;;;;;0;0;;;;;;;12.6;47.59766;944.6178;;;;
2021/03/27 13:01:31;;;;;;;0;0;;;;;;;12.31;48.03613;944.6515;;;;
2021/03/27 13:03:56;;;;;;;0;0;;;;;;;12.12;49.65332;944.7308;;;;
2021/03/27 13:06:22;;;;;;;0.3;0.3;;;;;;;12.23;49.78125;944.7693;;;;
2021/03/27 13:08:48;;;;;;;0.7;0.1;;;;;;;12.03;47.90234;944.6802;;;;
2021/03/27 13:11:14;;;;;;;0.1;0.1;;;;;;;12;48.35742;944.7025;;;;
2021/03/27 13:13:39;;;;;;;0.2;0.2;;;;;;;12.19;48.44727;944.6145;;;;
2021/03/27 13:16:11;;;;;;;0.6;0.2;;;;;;;12.24;48.86523;944.6002;;;;
2021/03/27 13:18:37;;;;;;;2.1;0.2;;;;;;;11.99;50.00586;944.7431;;;;
2021/03/27 13:21:02;;;;;;;3.2;1.6;;;;;;;11.83;49.4834;944.7297;;;;
2021/03/27 13:23:28;;;;;;;1.4;1.1;;;;;;;11.95;49.80566;944.6747;;;;
2021/03/27 13:25:53;;;;;;;0.8;0.2;;;;;;;12.13;49.87305;944.699;;;;
2021/03/27 13:28:18;;;;;;;0.2;0.2;;;;;;;12.07;48.68457;944.6567;;;;
2021/03/27 13:30:43;;;;;;;0.2;0.2;;;;;;;12.02;47.01758;944.7126;;;;
2021/03/27 13:33:09;;;;;;;0;0;;;;;;;11.82;48.12012;944.7247;;;;
2021/03/27 13:35:34;;;;;;;0.1;0.1;;;;;;;11.97;47.59863;944.6965;;;;
2021/03/27 13:37:59;;;;;;;0.2;0.1;;;;;;;11.59;49.25;944.7609;;;;
2021/03/27 13:40:24;;;;;;;0.2;0.2;;;;;;;11.19;51;944.6365;;;;
2021/03/27 13:42:52;;;;;;;0;0;;;;;;;11.03;52.0791;944.7422;;;;
2021/03/27 13:45:17;;;;;;;0.1;0.1;;;;;;;10.89;51.62598;944.7201;;;;
2021/03/27 13:47:42;;;;;;;1.5;0.6;;;;;;;10.79;52.62012;944.6471;;;;
2021/03/27 13:50:07;;;;;;;0.1;0.1;;;;;;;10.56;54.63672;944.7244;;;;
2021/03/27 13:52:34;;;;;;;0.1;0.1;;;;;;;10.64;54.18848;944.7924;;;;
2021/03/27 13:54:59;;;;;;;0.1;0.1;;;;;;;10.59;54.63965;944.7775;;;;
2021/03/27 13:57:28;;;;;;;0.2;0.1;;;;;;;10.57;54.5;944.8792;;;;
2021/03/27 13:59:54;;;;;;;0.2;0.2;;;;;;;10.39;55.4707;944.8003;;;;
2021/03/27 14:02:19;;;;;;;0.1;0.1;;;;;;;10.17;56.36719;944.9352;;;;
2021/03/27 14:04:45;;;;;;;0.3;0.3;;;;;;;10.05;56.86328;944.9398;;;;
2021/03/27 14:07:10;;;;;;;0.7;0.1;;;;;;;10.12;57.41016;944.9422;;;;
2021/03/27 14:09:35;;;;;;;0.3;0.2;;;;;;;10.06;55.82813;944.9075;;;;
2021/03/27 14:12:00;;;;;;;0.3;0.2;;;;;;;9.97;56.16992;944.9219;;;;
2021/03/27 14:14:28;;;;;;;0.1;0.1;;;;;;;9.98;57.48242;944.8719;;;;
2021/03/27 14:16:53;;;;;;;0.2;0.1;;;;;;;10.04;56.38379;944.9794;;;;
2021/03/27 14:19:20;;;;;;;0;0;;;;;;;10.15;55.7373;945;;;;
2021/03/27 14:21:46;;;;;;;0.1;0.1;;;;;;;10.13;57.20508;944.9892;;;;
2021/03/27 14:24:13;;;;;;;0.2;0.2;;;;;;;10.27;55.23926;944.9769;;;;
2021/03/27 14:26:47;;;;;;;0.4;0.2;;;;;;;10.44;56.07129;944.918;;;;
2021/03/27 14:29:05;;;;;;;1.1;0.2;;;;;;;10.54;56.17383;944.9612;;;;
2021/03/27 14:31:30;;;;;;;0.2;0.2;;;;;;;10.72;54.46191;945.0129;;;;
2021/03/27 14:33:56;;;;;;;0.2;0.2;;;;;;;10.86;54.66406;944.9005;;;;